Terminal Aerodrome Forecast
Issued by NWS

Home | Current Version | Previous Version | Text Only | Print | Product List | Glossary On
Versions: 1 2 3 4 5 6 7 8 9 10 11 12 13 14 15 16 17 18 19 20 21 22 23 24 25 26 27 28
000
FTUS45 KGJT 242343
TAFRIL
TAF
KRIL 242343Z 2500/2524 00000KT P6SM -RA BKN060 BKN070 OVC090
      TEMPO 2500/2502 P6SM NSW SCT060 BKN090
     FM250200 07004KT P6SM FEW060 BKN110
     FM250600 VRB03KT P6SM SCT120
     FM251800 33007KT P6SM FEW250=

USA.gov is the U.S. government's official web portal to all federal, state and local government web resources and services.